Aeroporto :
LOGIN :

Iscrizione | Disclaimer

   EN    FR    IT 

 










Sommario :    VFR   VFR Marginale   IFR   IFR Intensivo   IFR Molto Intensivo
Visibilità : 
Base nubi : 
>= 8 km
>= 3000ft
5 / 8 km
1000 / 3000 ft
1500m / 5 km
500 / 1000 ft
800 / 1500m
200 / 500 ft
< 800m
< 200 ft
Simboli :   Temporali  Nebbia  Neve Forte  Precipitazioni Forti  Vento > 20 kt
SIGMETs :   Varie  Temporali  Ghiacco  Turbolenza  Onda orograficha  Ceneri Vulcaniche






- Altitudine del aeroporto : 157 ft
- Codice IATA : LIL


LFQQ - Lille Lesquin

ULTIMO METAR :
  • 250430Z AUTO 27006KT 3900 BR NSC 09/08 Q1018 TEMPO OVC003 BECMG 9999 NSW

METARs OBSOLETI :
  • 250400Z AUTO 27006KT 3700 BR NSC 09/08 Q1018 TEMPO OVC003
  • 250330Z AUTO 28004KT 5000 BR NSC 09/08 Q1018 TEMPO OVC003
  • 250300Z AUTO 27006KT 6000 NSC 09/08 Q1018 TEMPO 3000 BR OVC003
  • 250230Z AUTO 27007KT 9000 NSC 09/08 Q1018 TEMPO 3000 BR OVC003
  • 250200Z AUTO 28005KT CAVOK 09/08 Q1018 TEMPO 3000 BR OVC003
  • 250130Z AUTO 24006KT CAVOK 10/09 Q1018 TEMPO 3000 BR OVC003
  • 250100Z AUTO 34003KT CAVOK 11/09 Q1018 TEMPO 3000 BR OVC003
  • 250030Z AUTO 33003KT CAVOK 11/09 Q1019 TEMPO 3000 BR OVC003
  • 250000Z AUTO 28004KT CAVOK 11/09 Q1019 NOSIG

TAF TAF LFQQ
Valido dal 25 a 00 ore il 26 a 06 ore UTC


242300Z 2500/2606 28004KT CAVOK
PROB30
TEMPO 2502/2506 3000 BR OVC003
BECMG 2518/2520 09004KT
PROB40
TEMPO 2605/2606 4000 -RA BKN014
ATIS : +33 3 20 16 19 54



MetMap, La meteo Aeronautica in un colpo d'occhio ! - Copyright ORBIFLY Dicembre 2007 - Disclaimer

ORBIFLY MET'MAP TEAM :

Programmazione e sviluppo : Alexandra Zaïnal
Concezione : Baudouin d'Aumeries
Supporto tecnico e logistico : Manuel Goepfert
Aiuto : Marc-Olivier Méhu
Aiuto per la traduzione : Arnaldo La Scala




FONTI E CREDITI :

   NOAA